createdAt,value
2019-03-31T00:00:50.140Z,9.18
2019-03-31T00:01:50.116Z,9.21
2019-03-31T00:02:50.106Z,9.24
2019-03-31T00:03:50.109Z,9.15
2019-03-31T00:04:50.093Z,9.14
2019-03-31T00:05:50.150Z,9.18
2019-03-31T00:06:50.075Z,9.20
2019-03-31T00:07:50.052Z,9.20
2019-03-31T00:08:50.054Z,9.17
2019-03-31T00:09:50.038Z,9.17
2019-03-31T00:10:50.033Z,9.17
2019-03-31T00:11:50.041Z,8.99
2019-03-31T00:12:50.000Z,8.96
2019-03-31T00:13:49.992Z,8.84
2019-03-31T00:14:49.982Z,8.84
2019-03-31T00:15:50.017Z,8.81
2019-03-31T00:16:52.441Z,8.73
2019-03-31T00:17:49.957Z,8.83
2019-03-31T00:18:49.938Z,8.80
2019-03-31T00:19:49.929Z,8.86
2019-03-31T00:20:49.920Z,8.89
2019-03-31T00:21:49.911Z,8.86
2019-03-31T00:22:49.987Z,9.02
2019-03-31T00:23:49.884Z,9.01
2019-03-31T00:24:53.184Z,9.02
2019-03-31T00:25:49.864Z,9.02
2019-03-31T00:26:49.846Z,9.04
2019-03-31T00:27:49.851Z,8.98
2019-03-31T00:28:49.844Z,9.05
2019-03-31T00:29:49.821Z,9.15
2019-03-31T00:30:49.818Z,9.10
2019-03-31T00:31:49.801Z,9.04
2019-03-31T00:32:49.783Z,9.04
2019-03-31T00:33:49.795Z,8.99
2019-03-31T00:34:49.767Z,9.01
2019-03-31T00:35:49.763Z,8.92
2019-03-31T00:36:49.747Z,8.96
2019-03-31T00:37:49.746Z,8.83
2019-03-31T00:38:49.730Z,8.77
2019-03-31T00:39:49.722Z,8.84
2019-03-31T00:40:49.704Z,8.70
2019-03-31T00:41:49.687Z,8.58
2019-03-31T00:42:49.681Z,8.66
2019-03-31T00:43:49.667Z,8.65
2019-03-31T00:44:49.667Z,8.63
2019-03-31T00:45:49.661Z,8.61
2019-03-31T00:46:49.633Z,8.63
2019-03-31T00:47:49.624Z,8.56
2019-03-31T00:48:49.616Z,8.61
2019-03-31T00:49:49.602Z,8.62
2019-03-31T00:50:49.602Z,8.66
2019-03-31T00:51:49.572Z,8.53
2019-03-31T00:52:49.571Z,8.43
2019-03-31T00:53:49.557Z,8.45
2019-03-31T00:54:49.554Z,8.43
2019-03-31T00:55:49.548Z,8.43
2019-03-31T00:56:49.532Z,8.50
2019-03-31T00:57:49.511Z,8.45
2019-03-31T00:58:49.496Z,8.52
2019-03-31T00:59:49.486Z,8.48
2019-03-31T01:00:49.552Z,8.48
2019-03-31T01:01:49.467Z,8.44
2019-03-31T01:02:49.456Z,8.45
2019-03-31T01:03:49.453Z,8.50
2019-03-31T01:04:49.433Z,8.47
2019-03-31T01:05:49.435Z,8.43
2019-03-31T01:06:49.418Z,8.44
2019-03-31T01:07:49.408Z,8.33
2019-03-31T01:08:49.393Z,8.40
2019-03-31T01:09:49.397Z,8.44
2019-03-31T01:10:49.371Z,8.41
2019-03-31T01:11:49.358Z,8.43
2019-03-31T01:12:49.358Z,8.50
2019-03-31T01:13:49.336Z,8.40
2019-03-31T01:14:49.331Z,8.43
2019-03-31T01:15:49.323Z,8.45
2019-03-31T01:16:49.310Z,8.41
2019-03-31T01:17:49.291Z,8.41
2019-03-31T01:18:49.289Z,8.43
2019-03-31T01:19:49.271Z,8.41
2019-03-31T01:20:49.263Z,8.48
2019-03-31T01:21:49.251Z,8.44
2019-03-31T01:22:49.239Z,8.53
2019-03-31T01:23:49.243Z,8.56
2019-03-31T01:24:49.220Z,8.65
2019-03-31T01:25:49.218Z,8.52
2019-03-31T01:26:49.204Z,8.52
2019-03-31T01:27:49.180Z,8.52
2019-03-31T01:28:49.166Z,8.55
2019-03-31T01:29:49.166Z,8.61
2019-03-31T01:30:49.148Z,8.62
2019-03-31T01:31:50.465Z,8.66
2019-03-31T01:32:49.130Z,8.63
2019-03-31T01:33:49.114Z,8.70
2019-03-31T01:34:49.111Z,8.74
2019-03-31T01:35:49.103Z,8.73
2019-03-31T01:36:49.086Z,8.76
2019-03-31T01:37:49.081Z,8.83
2019-03-31T01:38:49.071Z,8.74
2019-03-31T01:39:49.054Z,8.76
2019-03-31T01:40:49.040Z,8.73
2019-03-31T01:41:49.026Z,8.79
2019-03-31T01:42:49.021Z,8.80
2019-03-31T01:43:49.018Z,8.77
2019-03-31T01:44:49.002Z,8.84
2019-03-31T01:45:49.069Z,8.81
2019-03-31T01:46:48.977Z,8.87
2019-03-31T01:47:48.973Z,8.95
2019-03-31T01:48:48.951Z,8.96
2019-03-31T01:49:48.938Z,8.98
2019-03-31T01:50:48.934Z,8.87
2019-03-31T01:51:48.927Z,8.95
2019-03-31T01:52:48.908Z,9.01
2019-03-31T01:53:48.906Z,8.96
2019-03-31T01:54:48.886Z,9.04
2019-03-31T01:55:48.875Z,8.99
2019-03-31T01:56:48.863Z,8.98
2019-03-31T01:57:48.856Z,8.99
2019-03-31T01:58:48.840Z,9.04
2019-03-31T01:59:48.835Z,9.02
2019-03-31T02:00:48.825Z,9.01
2019-03-31T02:01:48.808Z,9.01
2019-03-31T02:02:48.800Z,9.08
2019-03-31T02:03:48.783Z,9.05
2019-03-31T02:04:48.772Z,9.01
2019-03-31T02:05:48.761Z,9.08
2019-03-31T02:06:48.750Z,9.01
2019-03-31T02:07:48.737Z,9.02
2019-03-31T02:08:48.746Z,9.04
2019-03-31T02:09:48.723Z,9.11
2019-03-31T02:10:48.709Z,9.01
2019-03-31T02:11:48.702Z,9.11
2019-03-31T02:12:48.699Z,9.08
2019-03-31T02:13:48.686Z,9.08
2019-03-31T02:14:48.671Z,8.99
2019-03-31T02:15:48.658Z,9.08
2019-03-31T02:16:48.643Z,9.02
2019-03-31T02:17:48.641Z,9.05
2019-03-31T02:18:48.627Z,9.01
2019-03-31T02:19:48.626Z,8.98
2019-03-31T02:20:48.631Z,8.99
2019-03-31T02:21:48.583Z,8.91
2019-03-31T02:22:48.592Z,8.91
2019-03-31T02:23:48.570Z,8.96
2019-03-31T02:24:48.561Z,8.86
2019-03-31T02:25:48.557Z,8.86
2019-03-31T02:26:48.532Z,8.81
2019-03-31T02:27:48.540Z,8.76
2019-03-31T02:28:48.515Z,8.76
2019-03-31T02:29:48.519Z,8.77
2019-03-31T02:30:48.496Z,8.73
2019-03-31T02:31:48.486Z,8.70
2019-03-31T02:32:48.473Z,8.70
2019-03-31T02:33:48.491Z,8.61
2019-03-31T02:34:48.452Z,8.66
2019-03-31T02:35:48.448Z,8.68
2019-03-31T02:36:48.426Z,8.55
2019-03-31T02:37:48.431Z,8.65
2019-03-31T02:38:48.407Z,8.63
2019-03-31T02:39:48.407Z,8.68
2019-03-31T02:40:48.390Z,8.62
2019-03-31T02:41:48.374Z,8.63
2019-03-31T02:42:48.364Z,8.68
2019-03-31T02:43:48.346Z,8.61
2019-03-31T02:44:48.339Z,8.56
2019-03-31T02:45:48.336Z,8.53
2019-03-31T02:46:48.313Z,8.55
2019-03-31T02:47:48.317Z,8.53
2019-03-31T02:48:48.306Z,8.59
2019-03-31T02:49:48.285Z,8.62
2019-03-31T02:50:48.272Z,8.44
2019-03-31T02:51:48.263Z,8.47
2019-03-31T02:52:48.253Z,8.52
2019-03-31T02:53:48.333Z,8.44
2019-03-31T02:54:48.228Z,8.47
2019-03-31T02:55:48.219Z,8.43
2019-03-31T02:56:48.211Z,8.40
2019-03-31T02:57:48.203Z,8.34
2019-03-31T02:58:48.188Z,8.34
2019-03-31T02:59:48.182Z,8.36
2019-03-31T03:00:48.192Z,8.33
2019-03-31T03:01:48.154Z,8.28
2019-03-31T03:02:48.135Z,8.22
2019-03-31T03:03:48.136Z,8.20
2019-03-31T03:04:48.157Z,8.23
2019-03-31T03:05:48.107Z,8.18
2019-03-31T03:06:48.102Z,8.15
2019-03-31T03:07:48.092Z,8.08
2019-03-31T03:08:48.109Z,7.98
2019-03-31T03:09:48.061Z,7.98
2019-03-31T03:10:48.058Z,8.01
2019-03-31T03:11:48.045Z,8.08
2019-03-31T03:12:48.041Z,8.01
2019-03-31T03:13:48.028Z,8.00
2019-03-31T03:14:48.014Z,8.07
2019-03-31T03:15:48.016Z,8.04
2019-03-31T03:16:47.981Z,8.08
2019-03-31T03:17:47.977Z,8.00
2019-03-31T03:18:47.978Z,8.01
2019-03-31T03:19:47.958Z,8.01
2019-03-31T03:20:47.949Z,7.98
2019-03-31T03:21:47.944Z,8.00
2019-03-31T03:22:47.920Z,7.95
2019-03-31T03:23:47.912Z,7.93
2019-03-31T03:24:47.906Z,7.82
2019-03-31T03:25:55.800Z,7.90
2019-03-31T03:26:48.879Z,7.86
2019-03-31T03:27:47.870Z,7.93
2019-03-31T03:28:47.851Z,7.90
2019-03-31T03:29:47.847Z,7.83
2019-03-31T03:30:47.987Z,7.92
2019-03-31T03:31:47.822Z,7.90
2019-03-31T03:33:12.354Z,7.87
2019-03-31T03:33:48.799Z,7.83
2019-03-31T03:34:47.872Z,7.85
2019-03-31T03:35:47.781Z,7.87
2019-03-31T03:36:47.772Z,7.82
2019-03-31T03:37:47.759Z,7.89
2019-03-31T03:38:47.761Z,7.80
2019-03-31T03:39:47.735Z,7.82
2019-03-31T03:40:47.729Z,7.80
2019-03-31T03:41:47.717Z,7.83
2019-03-31T03:42:47.698Z,7.77
2019-03-31T03:43:55.975Z,7.82
2019-03-31T03:44:48.683Z,7.72
2019-03-31T03:45:47.675Z,7.72
2019-03-31T03:46:47.665Z,7.77
2019-03-31T03:47:47.654Z,7.75
2019-03-31T03:48:47.705Z,7.74
2019-03-31T03:49:47.636Z,7.80
2019-03-31T03:50:47.617Z,7.77
2019-03-31T03:51:47.603Z,7.77
2019-03-31T03:52:47.589Z,7.63
2019-03-31T03:53:47.588Z,7.63
2019-03-31T03:54:47.586Z,7.61
2019-03-31T03:55:47.569Z,7.58
2019-03-31T03:56:47.550Z,7.53
2019-03-31T03:57:47.543Z,7.58
2019-03-31T03:58:47.531Z,7.63
2019-03-31T03:59:47.512Z,7.52
2019-03-31T04:00:47.544Z,7.48
2019-03-31T04:01:47.496Z,7.49
2019-03-31T04:02:47.486Z,7.43
2019-03-31T04:03:47.471Z,7.30
2019-03-31T04:04:47.467Z,7.28
2019-03-31T04:05:47.452Z,7.24
2019-03-31T04:06:47.442Z,7.28
2019-03-31T04:07:47.537Z,7.35
2019-03-31T04:08:47.417Z,7.30
2019-03-31T04:09:47.417Z,7.37
2019-03-31T04:10:47.402Z,7.37
2019-03-31T04:11:47.388Z,7.32
2019-03-31T04:12:47.379Z,7.31
2019-03-31T04:13:47.366Z,7.24
2019-03-31T04:14:47.357Z,7.31
2019-03-31T04:15:47.341Z,7.28
2019-03-31T04:16:47.331Z,7.34
2019-03-31T04:17:47.328Z,7.37
2019-03-31T04:18:47.307Z,7.32
2019-03-31T04:19:47.297Z,7.32
2019-03-31T04:20:47.287Z,7.31
2019-03-31T04:21:47.286Z,7.30
2019-03-31T04:22:47.262Z,7.32
2019-03-31T04:23:47.266Z,7.34
2019-03-31T04:24:47.245Z,7.37
2019-03-31T04:25:47.252Z,7.34
2019-03-31T04:26:47.232Z,7.35
2019-03-31T04:27:47.211Z,7.27
2019-03-31T04:28:47.205Z,7.25
2019-03-31T04:29:47.197Z,7.24
2019-03-31T04:30:47.176Z,7.23
2019-03-31T04:31:47.225Z,7.17
2019-03-31T04:32:47.167Z,7.23
2019-03-31T04:33:52.786Z,7.25
2019-03-31T04:34:48.130Z,7.17
2019-03-31T04:35:47.126Z,7.27
2019-03-31T04:36:47.121Z,7.25
2019-03-31T04:37:47.103Z,7.25
2019-03-31T04:38:47.100Z,7.13
2019-03-31T04:39:47.087Z,7.27
2019-03-31T04:40:47.078Z,7.15
2019-03-31T04:41:47.068Z,7.21
2019-03-31T04:42:47.072Z,7.16
2019-03-31T04:43:47.087Z,7.21
2019-03-31T04:44:47.028Z,7.13
2019-03-31T04:45:47.022Z,7.05
2019-03-31T04:46:47.007Z,7.12
2019-03-31T04:47:47.006Z,7.09
2019-03-31T04:48:46.984Z,7.12
2019-03-31T04:49:46.977Z,7.09
2019-03-31T04:50:46.959Z,7.10
2019-03-31T04:51:46.952Z,7.07
2019-03-31T04:52:46.942Z,7.10
2019-03-31T04:53:46.939Z,7.10
2019-03-31T04:54:46.926Z,7.13
2019-03-31T04:55:46.918Z,7.16
2019-03-31T04:56:46.900Z,7.09
2019-03-31T04:57:46.891Z,7.06
2019-03-31T04:58:46.902Z,7.07
2019-03-31T04:59:46.866Z,7.16
2019-03-31T05:00:46.857Z,7.10
2019-03-31T05:01:46.842Z,7.06
2019-03-31T05:02:46.842Z,7.13
2019-03-31T05:03:46.910Z,7.13
2019-03-31T05:04:46.807Z,7.23
2019-03-31T05:05:46.802Z,7.21
2019-03-31T05:06:46.797Z,7.16
2019-03-31T05:07:46.785Z,7.25
2019-03-31T05:08:46.789Z,7.21
2019-03-31T05:09:46.762Z,7.24
2019-03-31T05:10:46.751Z,7.23
2019-03-31T05:11:46.744Z,7.30
2019-03-31T05:12:46.736Z,7.31
2019-03-31T05:13:46.717Z,7.35
2019-03-31T05:14:46.710Z,7.42
2019-03-31T05:15:46.701Z,7.43
2019-03-31T05:16:46.687Z,7.48
2019-03-31T05:17:46.672Z,7.49
2019-03-31T05:18:46.660Z,7.48
2019-03-31T05:19:46.659Z,7.46
2019-03-31T05:20:46.655Z,7.50
2019-03-31T05:21:46.634Z,7.46
2019-03-31T05:22:46.619Z,7.49
2019-03-31T05:23:46.614Z,7.46
2019-03-31T05:24:46.591Z,7.52
2019-03-31T05:25:46.598Z,7.53
2019-03-31T05:26:46.582Z,7.61
2019-03-31T05:27:46.570Z,7.64
2019-03-31T05:28:46.552Z,7.64
2019-03-31T05:29:46.550Z,7.67
2019-03-31T05:30:46.537Z,7.71
2019-03-31T05:31:46.527Z,7.71
2019-03-31T05:32:46.511Z,7.80
2019-03-31T05:33:46.502Z,7.79
2019-03-31T05:34:46.485Z,7.85
2019-03-31T05:35:46.472Z,7.87
2019-03-31T05:36:46.464Z,7.85
2019-03-31T05:37:51.289Z,7.86
2019-03-31T05:38:47.441Z,7.93
2019-03-31T05:39:46.428Z,7.95
2019-03-31T05:40:46.478Z,7.92
2019-03-31T05:41:46.426Z,7.90
2019-03-31T05:42:46.436Z,8.01
2019-03-31T05:43:46.389Z,8.00
2019-03-31T05:44:46.377Z,8.07
2019-03-31T05:45:46.366Z,8.12
2019-03-31T05:46:46.354Z,8.11
2019-03-31T05:47:46.356Z,8.11
2019-03-31T05:48:46.326Z,8.19
2019-03-31T05:49:46.324Z,8.28
2019-03-31T05:50:46.312Z,8.28
2019-03-31T05:51:46.301Z,8.33
2019-03-31T05:52:46.293Z,8.30
2019-03-31T05:53:46.282Z,8.29
2019-03-31T05:54:46.264Z,8.26
2019-03-31T05:55:46.251Z,8.28
2019-03-31T05:56:46.245Z,8.26
2019-03-31T05:57:46.225Z,8.26
2019-03-31T05:58:46.226Z,8.20
2019-03-31T05:59:46.217Z,8.16
2019-03-31T06:00:46.196Z,8.26
2019-03-31T06:01:46.186Z,8.29
2019-03-31T06:02:46.178Z,8.20
2019-03-31T06:03:46.165Z,8.20
2019-03-31T06:04:46.152Z,8.22
2019-03-31T06:05:46.143Z,8.20
2019-03-31T06:06:46.128Z,8.20
2019-03-31T06:07:46.125Z,8.12
2019-03-31T06:08:46.116Z,8.19
2019-03-31T06:09:46.104Z,8.19
2019-03-31T06:10:46.097Z,8.18
2019-03-31T06:11:46.078Z,8.15
2019-03-31T06:12:46.071Z,8.18
2019-03-31T06:13:46.052Z,8.11
2019-03-31T06:14:46.044Z,8.04
2019-03-31T06:15:46.037Z,8.08
2019-03-31T06:16:46.040Z,8.02
2019-03-31T06:17:46.010Z,8.01
2019-03-31T06:18:46.002Z,8.08
2019-03-31T06:19:45.996Z,8.04
2019-03-31T06:20:45.981Z,8.04
2019-03-31T06:21:45.970Z,8.00
2019-03-31T06:22:45.962Z,8.07
2019-03-31T06:23:45.945Z,7.93
2019-03-31T06:24:45.933Z,7.90
2019-03-31T06:25:45.924Z,8.02
2019-03-31T06:26:45.922Z,8.01
2019-03-31T06:27:45.911Z,7.98
2019-03-31T06:28:45.895Z,8.02
2019-03-31T06:29:45.878Z,8.11
2019-03-31T06:30:45.872Z,8.18
2019-03-31T06:31:45.857Z,8.16
2019-03-31T06:32:45.855Z,8.08
2019-03-31T06:33:45.831Z,8.23
2019-03-31T06:34:47.775Z,8.20
2019-03-31T06:35:45.812Z,8.48
2019-03-31T06:36:45.800Z,8.61
2019-03-31T06:37:45.801Z,9.04
2019-03-31T06:38:45.776Z,9.18
2019-03-31T06:39:45.776Z,9.28
2019-03-31T06:40:45.757Z,9.72
2019-03-31T06:41:45.752Z,9.90
2019-03-31T06:42:45.738Z,10.38
2019-03-31T06:43:45.723Z,11.15
2019-03-31T06:44:45.716Z,11.57
2019-03-31T06:45:45.710Z,11.85
2019-03-31T06:46:45.690Z,12.24
2019-03-31T06:47:45.683Z,12.45
2019-03-31T06:48:45.668Z,12.82
2019-03-31T06:49:45.670Z,13.19
2019-03-31T06:50:45.650Z,13.54
2019-03-31T06:51:45.636Z,13.75
2019-03-31T06:52:45.624Z,13.87
2019-03-31T06:53:45.614Z,13.77
2019-03-31T06:54:45.612Z,13.69
2019-03-31T06:55:45.598Z,13.69
2019-03-31T06:56:47.235Z,13.73
2019-03-31T06:57:45.570Z,13.54
2019-03-31T06:58:45.560Z,13.15
2019-03-31T06:59:45.551Z,12.95
2019-03-31T07:00:45.542Z,12.86
2019-03-31T07:01:45.526Z,12.46
2019-03-31T07:02:45.527Z,12.39
2019-03-31T07:03:45.526Z,12.27
2019-03-31T07:04:45.526Z,12.14
2019-03-31T07:05:45.520Z,11.80
2019-03-31T07:06:45.528Z,11.94
2019-03-31T07:07:45.548Z,11.91
2019-03-31T07:08:45.463Z,12.05
2019-03-31T07:09:45.474Z,11.94
2019-03-31T07:10:45.467Z,12.05
2019-03-31T07:11:45.490Z,12.09
2019-03-31T07:12:45.427Z,12.21
2019-03-31T07:13:45.566Z,12.31
2019-03-31T07:14:45.397Z,12.10
2019-03-31T07:15:45.400Z,11.91
2019-03-31T07:16:45.404Z,12.09
2019-03-31T07:17:45.428Z,12.12
2019-03-31T07:18:45.402Z,12.21
2019-03-31T07:19:45.390Z,11.88
2019-03-31T07:20:45.384Z,11.98
2019-03-31T07:21:45.330Z,12.14
2019-03-31T07:22:45.367Z,12.12
2019-03-31T07:23:45.354Z,12.24
2019-03-31T07:24:45.386Z,12.42
2019-03-31T07:25:45.300Z,12.60
2019-03-31T07:26:45.324Z,12.45
2019-03-31T07:27:45.280Z,12.68
2019-03-31T07:28:45.276Z,12.70
2019-03-31T07:29:45.248Z,12.85
2019-03-31T07:30:45.303Z,13.10
2019-03-31T07:31:45.260Z,13.14
2019-03-31T07:32:45.200Z,13.22
2019-03-31T07:33:45.250Z,13.36
2019-03-31T07:34:45.206Z,13.26
2019-03-31T07:35:45.187Z,13.29
2019-03-31T07:36:45.160Z,13.26
2019-03-31T07:37:47.480Z,13.46
2019-03-31T07:38:45.397Z,13.69
2019-03-31T07:39:46.211Z,13.85
2019-03-31T07:40:45.455Z,13.79
2019-03-31T07:41:45.530Z,13.25
2019-03-31T07:42:45.089Z,12.85
2019-03-31T07:43:45.195Z,12.29
2019-03-31T07:44:45.109Z,12.19
2019-03-31T07:45:45.080Z,11.88
2019-03-31T07:46:45.062Z,11.78
2019-03-31T07:47:45.053Z,11.61
2019-03-31T07:48:45.037Z,11.46
2019-03-31T07:49:45.036Z,11.29
2019-03-31T07:50:45.048Z,11.29
2019-03-31T07:51:45.040Z,11.33
2019-03-31T07:52:45.029Z,11.28
2019-03-31T07:53:44.989Z,11.15
2019-03-31T07:54:44.964Z,11.19
2019-03-31T07:55:44.977Z,10.97
2019-03-31T07:56:44.990Z,10.99
2019-03-31T07:57:44.953Z,10.96
2019-03-31T07:58:44.937Z,10.92
2019-03-31T07:59:44.909Z,10.84
2019-03-31T08:00:44.924Z,10.85
2019-03-31T08:01:44.898Z,10.85
2019-03-31T08:02:44.990Z,10.86
2019-03-31T08:03:44.911Z,10.91
2019-03-31T08:04:44.895Z,10.88
2019-03-31T08:05:44.845Z,10.91
2019-03-31T08:06:44.897Z,10.94
2019-03-31T08:07:44.888Z,10.94
2019-03-31T08:08:44.817Z,10.86
2019-03-31T08:09:44.823Z,10.91
2019-03-31T08:10:44.802Z,10.79
2019-03-31T08:11:44.905Z,10.71
2019-03-31T08:12:44.792Z,10.61
2019-03-31T08:13:44.779Z,11.86
2019-03-31T08:14:44.760Z,12.20
2019-03-31T08:15:44.754Z,11.90
2019-03-31T08:16:44.759Z,11.49
2019-03-31T08:17:44.757Z,11.14
2019-03-31T08:18:44.740Z,10.94
2019-03-31T08:19:44.759Z,10.94
2019-03-31T08:20:44.704Z,10.85
2019-03-31T08:21:44.717Z,10.91
2019-03-31T08:22:44.700Z,10.82
2019-03-31T08:23:44.658Z,10.70
2019-03-31T08:24:44.646Z,10.68
2019-03-31T08:25:44.631Z,10.96
2019-03-31T08:26:44.616Z,11.06
2019-03-31T08:27:44.582Z,11.25
2019-03-31T08:28:44.607Z,11.10
2019-03-31T08:29:44.627Z,11.10
2019-03-31T08:30:44.601Z,11.18
2019-03-31T08:31:44.580Z,11.15
2019-03-31T08:32:44.555Z,11.15
2019-03-31T08:33:44.552Z,11.27
2019-03-31T08:34:44.518Z,11.28
2019-03-31T08:35:47.583Z,11.40
2019-03-31T08:36:44.520Z,11.33
2019-03-31T08:37:44.516Z,12.74
2019-03-31T08:38:44.514Z,13.88
2019-03-31T08:39:44.452Z,16.02
2019-03-31T08:40:44.457Z,17.58
2019-03-31T08:41:44.454Z,18.70
2019-03-31T08:42:44.433Z,17.87
2019-03-31T08:43:44.431Z,16.79
2019-03-31T08:44:44.402Z,15.71
2019-03-31T08:45:44.400Z,14.92
2019-03-31T08:46:44.398Z,14.35
2019-03-31T08:47:44.428Z,13.81
2019-03-31T08:48:44.384Z,13.39
2019-03-31T08:49:44.398Z,13.01
2019-03-31T08:50:44.373Z,12.78
2019-03-31T08:51:44.377Z,12.41
2019-03-31T08:52:44.336Z,12.23
2019-03-31T08:53:44.332Z,12.02
2019-03-31T08:54:44.326Z,12.01
2019-03-31T08:55:44.311Z,11.65
2019-03-31T08:56:44.286Z,11.79
2019-03-31T08:57:44.296Z,11.55
2019-03-31T08:58:44.279Z,11.58
2019-03-31T08:59:44.245Z,11.58
2019-03-31T09:00:44.245Z,11.57
2019-03-31T09:01:44.234Z,11.54
2019-03-31T09:02:44.224Z,11.65
2019-03-31T09:03:44.222Z,11.61
2019-03-31T09:04:44.209Z,11.58
2019-03-31T09:05:44.183Z,11.51
2019-03-31T09:06:44.164Z,11.51
2019-03-31T09:07:44.180Z,11.32
2019-03-31T09:08:44.160Z,11.15
2019-03-31T09:09:44.168Z,11.11
2019-03-31T09:10:44.148Z,11.02
2019-03-31T09:11:44.110Z,10.89
2019-03-31T09:12:44.105Z,10.92
2019-03-31T09:13:44.099Z,10.86
2019-03-31T09:14:44.076Z,10.89
2019-03-31T09:15:44.096Z,10.94
2019-03-31T09:16:44.067Z,10.88
2019-03-31T09:17:44.056Z,10.86
2019-03-31T09:18:44.040Z,10.92
2019-03-31T09:19:44.039Z,10.89
2019-03-31T09:20:44.026Z,10.89
2019-03-31T09:21:44.006Z,10.99
2019-03-31T09:22:43.996Z,11.00
2019-03-31T09:23:44.008Z,11.02
2019-03-31T09:24:43.978Z,11.00
2019-03-31T09:25:47.386Z,10.99
2019-03-31T09:26:43.956Z,10.99
2019-03-31T09:27:43.942Z,10.89
2019-03-31T09:28:43.972Z,10.81
2019-03-31T09:29:43.943Z,10.66
2019-03-31T09:30:43.938Z,10.63
2019-03-31T09:31:43.914Z,10.41
2019-03-31T09:32:43.915Z,10.41
2019-03-31T09:33:43.907Z,10.30
2019-03-31T09:34:43.872Z,10.33
2019-03-31T09:35:43.874Z,10.27
2019-03-31T09:36:43.857Z,10.32
2019-03-31T09:37:43.841Z,10.34
2019-03-31T09:38:43.842Z,10.30
2019-03-31T09:39:43.816Z,10.23
2019-03-31T09:40:43.792Z,10.26
2019-03-31T09:41:43.808Z,10.33
2019-03-31T09:42:43.787Z,10.27
2019-03-31T09:43:43.790Z,10.25
2019-03-31T09:44:43.758Z,10.26
2019-03-31T09:45:43.768Z,10.32
2019-03-31T09:46:43.728Z,10.29
2019-03-31T09:47:43.736Z,10.33
2019-03-31T09:48:43.706Z,10.36
2019-03-31T09:49:43.704Z,10.42
2019-03-31T09:50:43.730Z,10.47
2019-03-31T09:51:43.680Z,10.56
2019-03-31T09:52:43.680Z,10.66
2019-03-31T09:53:43.680Z,10.86
2019-03-31T09:54:43.677Z,10.94
2019-03-31T09:55:43.646Z,11.00
2019-03-31T09:56:43.632Z,11.18
2019-03-31T09:57:43.696Z,11.07
2019-03-31T09:58:43.686Z,11.04
2019-03-31T09:59:43.646Z,10.97
2019-03-31T10:00:43.614Z,10.99
2019-03-31T10:01:43.587Z,10.84
2019-03-31T10:02:43.581Z,10.85
2019-03-31T10:03:43.559Z,10.89
2019-03-31T10:04:43.534Z,11.04
2019-03-31T10:05:43.544Z,11.06
2019-03-31T10:06:43.507Z,11.10
2019-03-31T10:07:43.506Z,11.28
2019-03-31T10:08:43.486Z,11.28
2019-03-31T10:09:43.483Z,11.35
2019-03-31T10:10:43.464Z,11.17
2019-03-31T10:11:43.459Z,11.19
2019-03-31T10:12:43.436Z,11.27
2019-03-31T10:13:43.428Z,11.18
2019-03-31T10:14:43.424Z,11.17
2019-03-31T10:15:43.405Z,11.15
2019-03-31T10:16:43.404Z,11.03
2019-03-31T10:17:43.396Z,11.06
2019-03-31T10:18:43.452Z,11.03
2019-03-31T10:19:43.377Z,10.97
2019-03-31T10:20:43.387Z,10.94
2019-03-31T10:21:43.360Z,10.92
2019-03-31T10:22:43.356Z,10.99
2019-03-31T10:23:43.431Z,10.96
2019-03-31T10:24:43.366Z,10.96
2019-03-31T10:25:43.300Z,10.94
2019-03-31T10:26:43.300Z,10.91
2019-03-31T10:27:43.326Z,10.82
2019-03-31T10:28:43.293Z,10.84
2019-03-31T10:29:43.251Z,11.69
2019-03-31T10:30:43.244Z,12.70
2019-03-31T10:31:43.232Z,14.04
2019-03-31T10:32:43.220Z,14.22
2019-03-31T10:33:43.223Z,14.46
2019-03-31T10:34:43.232Z,14.42
2019-03-31T10:35:43.225Z,14.29
2019-03-31T10:36:44.848Z,14.21
2019-03-31T10:37:43.192Z,13.79
2019-03-31T10:38:43.174Z,13.46
2019-03-31T10:39:43.151Z,13.38
2019-03-31T10:40:43.275Z,12.86
2019-03-31T10:41:43.216Z,12.67
2019-03-31T10:42:43.119Z,12.50
2019-03-31T10:43:43.114Z,12.49
2019-03-31T10:44:43.098Z,12.37
2019-03-31T10:45:43.096Z,12.37
2019-03-31T10:46:43.083Z,12.23
2019-03-31T10:47:43.086Z,12.14
2019-03-31T10:48:43.050Z,11.96
2019-03-31T10:49:43.087Z,11.94
2019-03-31T10:50:43.041Z,11.75
2019-03-31T10:51:43.049Z,11.91
2019-03-31T10:52:43.008Z,11.90
2019-03-31T10:53:43.167Z,11.90
2019-03-31T10:54:43.093Z,11.95
2019-03-31T10:55:43.042Z,11.88
2019-03-31T10:56:43.002Z,11.88
2019-03-31T10:58:13.808Z,11.83
2019-03-31T10:59:13.774Z,11.83
2019-03-31T11:00:44.963Z,11.83
2019-03-31T11:01:44.486Z,11.96
2019-03-31T11:03:15.275Z,12.04
2019-03-31T11:04:15.089Z,12.05
2019-03-31T11:05:15.092Z,12.20
2019-03-31T11:06:15.083Z,12.19
2019-03-31T11:07:15.108Z,12.12
2019-03-31T11:08:15.102Z,12.53
2019-03-31T11:09:15.065Z,13.55
2019-03-31T11:10:15.095Z,14.21
2019-03-31T11:11:15.145Z,13.71
2019-03-31T11:12:15.063Z,13.44
2019-03-31T11:13:14.984Z,14.47
2019-03-31T11:14:14.976Z,15.20
2019-03-31T11:15:15.029Z,15.01
2019-03-31T11:16:14.955Z,15.41
2019-03-31T11:17:14.966Z,15.53
2019-03-31T11:18:14.939Z,15.57
2019-03-31T11:19:14.919Z,15.89
2019-03-31T11:20:14.919Z,15.90
2019-03-31T11:21:14.919Z,15.94
2019-03-31T11:22:14.909Z,16.12
2019-03-31T11:23:14.920Z,16.50
2019-03-31T11:24:14.975Z,15.94
2019-03-31T11:25:20.574Z,16.45
2019-03-31T11:26:15.931Z,15.80
2019-03-31T11:27:15.077Z,15.11
2019-03-31T11:28:14.948Z,15.39
2019-03-31T11:29:18.732Z,15.56
2019-03-31T11:30:14.873Z,15.82
2019-03-31T11:31:45.642Z,16.33
2019-03-31T11:32:45.556Z,16.67
2019-03-31T11:34:16.293Z,16.68
2019-03-31T11:35:16.184Z,16.21
2019-03-31T11:36:46.990Z,16.02
2019-03-31T11:37:46.913Z,16.12
2019-03-31T11:39:17.756Z,16.66
2019-03-31T11:40:17.722Z,16.71
2019-03-31T11:41:17.565Z,16.46
2019-03-31T11:42:17.579Z,16.42
2019-03-31T11:43:17.631Z,16.46
2019-03-31T11:44:17.782Z,16.48
2019-03-31T11:45:17.531Z,16.53
2019-03-31T11:46:17.537Z,16.27
2019-03-31T11:47:17.507Z,16.56
2019-03-31T11:48:18.489Z,16.75
2019-03-31T11:49:17.572Z,16.79
2019-03-31T11:50:48.394Z,17.01
2019-03-31T11:51:48.397Z,17.16
2019-03-31T11:53:20.243Z,17.43
2019-03-31T11:54:19.865Z,17.08
2019-03-31T11:55:50.586Z,16.88
2019-03-31T11:56:50.561Z,16.97
2019-03-31T11:58:22.169Z,16.70
2019-03-31T11:59:21.441Z,16.85
2019-03-31T12:00:52.151Z,16.68
2019-03-31T12:01:52.049Z,16.56
2019-03-31T12:03:22.886Z,16.00
2019-03-31T12:04:22.723Z,15.80
2019-03-31T12:05:53.607Z,15.78
2019-03-31T12:06:53.489Z,16.15
2019-03-31T12:08:24.275Z,16.41
2019-03-31T12:09:24.123Z,16.58
2019-03-31T12:10:54.881Z,15.82
2019-03-31T12:11:54.817Z,15.67
2019-03-31T12:13:25.727Z,16.58
2019-03-31T12:14:25.581Z,17.01
2019-03-31T12:15:56.179Z,17.51
2019-03-31T12:16:56.152Z,17.72
2019-03-31T12:18:39.482Z,17.40
2019-03-31T12:19:39.484Z,17.03
2019-03-31T12:21:10.255Z,16.98
2019-03-31T12:22:10.229Z,17.21
2019-03-31T12:23:41.005Z,17.92
2019-03-31T12:24:41.129Z,18.00
2019-03-31T12:26:11.693Z,17.74
2019-03-31T12:27:11.637Z,17.49
2019-03-31T12:28:58.599Z,17.18
2019-03-31T12:29:58.577Z,17.25
2019-03-31T12:30:58.878Z,17.49
2019-03-31T12:31:58.571Z,17.52
2019-03-31T12:33:29.344Z,17.79
2019-03-31T12:34:29.229Z,17.55
2019-03-31T12:36:00.121Z,17.87
2019-03-31T12:37:00.107Z,18.30
2019-03-31T12:38:31.645Z,17.22
2019-03-31T12:39:31.645Z,16.67
2019-03-31T12:41:02.545Z,16.34
2019-03-31T12:42:02.368Z,16.15
2019-03-31T12:43:33.506Z,15.71
2019-03-31T12:44:33.134Z,15.57
2019-03-31T12:46:03.864Z,16.01
2019-03-31T12:47:03.782Z,16.34
2019-03-31T12:48:34.477Z,16.85
2019-03-31T12:49:34.473Z,17.18
2019-03-31T12:50:34.451Z,17.48
2019-03-31T12:51:34.453Z,17.81
2019-03-31T12:52:46.090Z,17.86
2019-03-31T12:53:35.425Z,17.79
2019-03-31T12:54:34.423Z,17.68
2019-03-31T12:55:34.398Z,17.77
2019-03-31T12:56:34.389Z,18.10
2019-03-31T12:57:34.375Z,18.02
2019-03-31T12:58:34.369Z,17.62
2019-03-31T12:59:34.370Z,17.54
2019-03-31T13:00:34.348Z,17.64
2019-03-31T13:01:34.382Z,17.58
2019-03-31T13:02:34.321Z,17.68
2019-03-31T13:03:34.318Z,17.71
2019-03-31T13:04:34.329Z,17.55
2019-03-31T13:05:34.299Z,17.63
2019-03-31T13:06:34.321Z,17.87
2019-03-31T13:07:34.953Z,17.96
2019-03-31T13:08:34.259Z,18.07
2019-03-31T13:10:05.160Z,18.10
2019-03-31T13:11:05.072Z,17.58
2019-03-31T13:12:36.635Z,17.63
2019-03-31T13:13:36.673Z,17.71
2019-03-31T13:15:07.387Z,18.15
2019-03-31T13:16:07.491Z,18.50
2019-03-31T13:17:37.978Z,19.06
2019-03-31T13:18:38.009Z,18.92
2019-03-31T13:20:08.711Z,18.88
2019-03-31T13:21:08.704Z,18.85
2019-03-31T13:22:39.531Z,18.51
2019-03-31T13:23:39.422Z,18.15
2019-03-31T13:25:10.268Z,17.79